createdAt,value
2023-02-16T00:09:10.022Z,23.90
2023-02-16T00:19:37.450Z,23.60
2023-02-16T00:30:02.286Z,23.20
2023-02-16T00:40:26.578Z,20.00
2023-02-16T00:50:50.856Z,20.90
2023-02-16T01:01:18.101Z,20.20
2023-02-16T01:11:42.410Z,20.50
2023-02-16T01:22:06.591Z,21.30
2023-02-16T01:32:30.771Z,21.30
2023-02-16T01:43:03.034Z,20.50
2023-02-16T01:53:33.483Z,21.50
2023-02-16T02:04:16.360Z,18.80
2023-02-16T02:14:40.969Z,21.80
2023-02-16T02:25:22.662Z,21.20
2023-02-16T02:35:57.271Z,21.10
2023-02-16T02:46:26.198Z,20.90
2023-02-16T02:57:14.441Z,19.60
2023-02-16T03:07:47.076Z,21.60
2023-02-16T03:18:30.523Z,22.50
2023-02-16T03:29:14.123Z,20.70
2023-02-16T03:39:53.220Z,21.80
2023-02-16T03:50:18.271Z,21.90
2023-02-16T04:00:42.802Z,20.60
2023-02-16T04:11:21.784Z,20.10
2023-02-16T04:21:46.129Z,22.30
2023-02-16T04:32:10.461Z,23.60
2023-02-16T04:42:34.714Z,22.20
2023-02-16T04:52:58.972Z,21.80
2023-02-16T05:03:23.208Z,21.10
2023-02-16T05:14:06.600Z,24.30
2023-02-16T05:24:31.477Z,22.40
2023-02-16T05:34:56.229Z,50.00
2023-02-16T05:45:21.156Z,27.70
2023-02-16T05:55:45.457Z,23.80
2023-02-16T06:06:09.921Z,19.20
2023-02-16T06:16:35.314Z,20.80
2023-02-16T06:26:59.557Z,20.70
2023-02-16T06:37:25.549Z,26.10
2023-02-16T06:47:50.549Z,24.80
2023-02-16T06:58:15.424Z,18.80
2023-02-16T07:08:40.234Z,22.70
2023-02-16T07:19:06.370Z,20.20
2023-02-16T07:29:31.107Z,20.30
2023-02-16T07:39:56.565Z,22.70
2023-02-16T07:50:21.467Z,23.50
2023-02-16T08:00:46.278Z,20.10
2023-02-16T08:11:12.860Z,21.60
2023-02-16T08:21:38.745Z,21.40
2023-02-16T08:32:07.078Z,25.30
2023-02-16T08:42:31.451Z,19.70
2023-02-16T08:52:55.585Z,24.20
2023-02-16T09:03:20.132Z,22.80
2023-02-16T09:13:44.679Z,21.40
2023-02-16T09:24:10.960Z,25.50
2023-02-16T09:34:36.724Z,20.50
2023-02-16T09:45:06.941Z,21.90
2023-02-16T09:55:39.747Z,22.20
2023-02-16T10:06:21.649Z,21.80
2023-02-16T10:16:51.299Z,30.00
2023-02-16T10:27:16.731Z,19.60
2023-02-16T10:37:53.629Z,20.50
2023-02-16T10:48:17.798Z,25.80
2023-02-16T10:58:42.955Z,22.30
2023-02-16T11:09:07.216Z,21.20
2023-02-16T11:19:32.775Z,21.50
2023-02-16T11:30:22.020Z,20.90
2023-02-16T11:40:52.606Z,20.30
2023-02-16T11:51:31.320Z,19.60
2023-02-16T12:02:27.608Z,22.20
2023-02-16T12:13:04.091Z,21.70
2023-02-16T12:23:37.732Z,19.40
2023-02-16T12:34:23.540Z,21.30
2023-02-16T12:44:50.835Z,22.10
2023-02-16T12:55:21.816Z,19.70
2023-02-16T13:05:54.764Z,22.40
2023-02-16T13:16:30.417Z,20.30
2023-02-16T13:27:09.127Z,17.30
2023-02-16T13:37:52.764Z,19.90
2023-02-16T13:48:23.483Z,19.40
2023-02-16T13:58:47.915Z,16.80
2023-02-16T14:09:36.169Z,17.50
2023-02-16T14:20:03.463Z,19.20
2023-02-16T14:30:32.043Z,18.90
2023-02-16T14:51:41.442Z,21.30
2023-02-16T15:02:27.444Z,20.70
2023-02-16T15:12:52.582Z,19.90
2023-02-16T15:23:21.418Z,23.30
2023-02-16T15:33:56.257Z,21.50
2023-02-16T15:44:33.672Z,22.80
2023-02-16T15:54:59.769Z,25.10
2023-02-16T16:05:26.835Z,31.70
2023-02-16T16:15:52.154Z,27.00
2023-02-16T16:26:20.244Z,23.70
2023-02-16T16:36:53.570Z,23.40
2023-02-16T16:47:25.213Z,28.60
2023-02-16T16:57:50.906Z,25.90
2023-02-16T17:08:15.137Z,25.00
2023-02-16T17:18:39.568Z,27.90
2023-02-16T17:29:04.954Z,31.00
2023-02-16T17:39:29.199Z,33.00
2023-02-16T17:49:53.650Z,41.90
2023-02-16T18:00:22.548Z,32.50
2023-02-16T18:10:49.856Z,28.60
2023-02-16T18:21:14.305Z,29.60
2023-02-16T18:31:39.906Z,34.10
2023-02-16T18:42:04.635Z,31.50
2023-02-16T18:52:29.691Z,32.50
2023-02-16T19:02:57.514Z,29.00
2023-02-16T19:13:21.664Z,29.20
2023-02-16T19:23:47.358Z,28.20
2023-02-16T19:34:12.381Z,33.40
2023-02-16T19:44:36.844Z,35.50
2023-02-16T19:55:01.178Z,33.90
2023-02-16T20:05:25.444Z,38.80
2023-02-16T20:15:49.699Z,41.60
2023-02-16T20:26:18.080Z,40.40
2023-02-16T20:36:42.274Z,39.20
2023-02-16T20:47:07.504Z,33.60
2023-02-16T20:57:31.747Z,34.80
2023-02-16T21:07:56.003Z,35.50
2023-02-16T21:18:20.881Z,34.10
2023-02-16T21:28:46.316Z,34.70
2023-02-16T21:39:10.572Z,35.10
2023-02-16T21:49:34.731Z,35.20
2023-02-16T21:59:58.932Z,33.40
2023-02-16T22:10:23.343Z,37.80
2023-02-16T22:20:47.668Z,34.70
2023-02-16T22:31:11.889Z,33.80
2023-02-16T22:41:36.176Z,37.90
2023-02-16T22:52:00.367Z,32.20
2023-02-16T23:02:24.661Z,31.90
2023-02-16T23:12:48.914Z,26.00
2023-02-16T23:23:13.141Z,25.90
2023-02-16T23:33:37.407Z,25.90
2023-02-16T23:44:01.898Z,29.20
2023-02-16T23:54:26.184Z,31.30
